createdAt,value
2024-02-13T00:00:11.985Z,4.28
2024-02-13T00:02:41.701Z,6.65
2024-02-13T00:05:10.388Z,3.30
2024-02-13T00:07:40.002Z,6.00
2024-02-13T00:10:12.949Z,5.03
2024-02-13T00:12:40.489Z,4.90
2024-02-13T00:15:10.594Z,5.57
2024-02-13T00:17:37.553Z,4.40
2024-02-13T00:20:09.643Z,4.07
2024-02-13T00:22:39.577Z,5.78
2024-02-13T00:25:07.836Z,5.07
2024-02-13T00:27:36.439Z,2.75
2024-02-13T00:30:04.101Z,5.28
2024-02-13T00:32:31.656Z,7.45
2024-02-13T00:34:59.527Z,2.97
2024-02-13T00:37:26.310Z,4.50
2024-02-13T00:39:54.379Z,5.03
2024-02-13T00:42:21.265Z,11.80
2024-02-13T00:44:49.064Z,3.63
2024-02-13T00:47:16.050Z,3.60
2024-02-13T00:49:43.009Z,5.15
2024-02-13T00:52:09.719Z,4.05
2024-02-13T00:54:37.101Z,6.82
2024-02-13T00:57:04.365Z,3.38
2024-02-13T00:59:32.158Z,5.55
2024-02-13T01:02:00.122Z,8.30
2024-02-13T01:04:28.368Z,5.90
2024-02-13T01:06:55.446Z,3.63
2024-02-13T01:09:22.300Z,3.28
2024-02-13T01:11:49.681Z,3.72
2024-02-13T01:14:16.738Z,2.13
2024-02-13T01:16:43.535Z,7.28
2024-02-13T01:19:10.308Z,7.00
2024-02-13T01:21:37.298Z,3.75
2024-02-13T01:24:04.427Z,4.70
2024-02-13T01:26:31.201Z,4.78
2024-02-13T01:28:58.420Z,2.70
2024-02-13T01:31:25.237Z,5.57
2024-02-13T01:33:52.134Z,5.55
2024-02-13T01:36:22.078Z,5.50
2024-02-13T01:38:50.042Z,4.80
2024-02-13T01:41:17.016Z,5.90
2024-02-13T01:43:43.820Z,3.33
2024-02-13T01:46:12.619Z,6.75
2024-02-13T01:48:40.662Z,4.32
2024-02-13T01:51:08.658Z,5.95
2024-02-13T01:53:37.575Z,5.88
2024-02-13T01:56:06.355Z,5.28
2024-02-13T01:58:33.603Z,3.83
2024-02-13T02:01:01.675Z,4.18
2024-02-13T02:03:32.312Z,3.33
2024-02-13T02:06:01.593Z,4.50
2024-02-13T02:08:29.146Z,3.58
2024-02-13T02:11:00.130Z,6.55
2024-02-13T02:13:28.602Z,4.60
2024-02-13T02:15:56.274Z,5.22
2024-02-13T02:18:23.311Z,5.82
2024-02-13T02:20:50.368Z,3.42
2024-02-13T02:23:20.367Z,6.30
2024-02-13T02:25:48.103Z,4.97
2024-02-13T02:28:16.546Z,5.93
2024-02-13T02:30:43.936Z,4.25
2024-02-13T02:33:10.928Z,3.13
2024-02-13T02:35:37.903Z,5.60
2024-02-13T02:38:04.880Z,5.28
2024-02-13T02:40:31.626Z,7.22
2024-02-13T02:43:00.941Z,3.58
2024-02-13T02:45:28.946Z,8.45
2024-02-13T02:47:56.387Z,6.10
2024-02-13T02:50:23.820Z,4.25
2024-02-13T02:52:51.623Z,3.65
2024-02-13T02:55:23.134Z,5.35
2024-02-13T02:57:51.864Z,4.68
2024-02-13T03:00:20.118Z,4.78
2024-02-13T03:02:47.497Z,4.68
2024-02-13T03:05:14.757Z,4.25
2024-02-13T03:07:41.623Z,6.57
2024-02-13T03:10:11.382Z,4.57
2024-02-13T03:12:39.327Z,7.82
2024-02-13T03:15:07.107Z,4.15
2024-02-13T03:17:34.245Z,4.20
2024-02-13T03:20:02.254Z,7.40
2024-02-13T03:22:29.523Z,6.30
2024-02-13T03:24:56.379Z,5.78
2024-02-13T03:27:23.203Z,7.93
2024-02-13T03:29:50.041Z,4.97
2024-02-13T03:32:16.994Z,6.22
2024-02-13T03:34:43.898Z,3.95
2024-02-13T03:37:10.741Z,9.52
2024-02-13T03:39:37.587Z,3.25
2024-02-13T03:42:05.811Z,6.63
2024-02-13T03:44:33.410Z,4.18
2024-02-13T03:47:00.705Z,3.65
2024-02-13T03:49:28.397Z,5.00
2024-02-13T03:51:55.321Z,5.45
2024-02-13T03:54:22.178Z,4.97
2024-02-13T03:56:49.284Z,2.90
2024-02-13T03:59:17.320Z,5.60
2024-02-13T04:01:45.055Z,4.20
2024-02-13T04:04:11.922Z,4.85
2024-02-13T04:06:38.805Z,5.55
2024-02-13T04:09:08.477Z,6.35
2024-02-13T04:11:37.029Z,4.90
2024-02-13T04:14:04.274Z,4.38
2024-02-13T04:16:32.078Z,7.93
2024-02-13T04:19:00.398Z,6.60
2024-02-13T04:21:27.478Z,5.70
2024-02-13T04:23:54.458Z,3.20
2024-02-13T04:26:30.564Z,3.72
2024-02-13T04:29:03.508Z,5.73
2024-02-13T04:31:30.486Z,3.83
2024-02-13T04:33:57.421Z,5.10
2024-02-13T04:36:25.145Z,4.00
2024-02-13T04:38:52.010Z,7.07
2024-02-13T04:41:21.808Z,9.52
2024-02-13T04:43:48.905Z,5.85
2024-02-13T04:46:15.927Z,4.47
2024-02-13T04:48:42.996Z,3.47
2024-02-13T04:51:10.537Z,8.10
2024-02-13T04:53:38.618Z,6.05
2024-02-13T04:56:06.176Z,5.95
2024-02-13T04:58:34.320Z,5.30
2024-02-13T05:01:06.624Z,6.13
2024-02-13T05:09:02.186Z,3.38
2024-02-13T05:11:29.059Z,5.57
2024-02-13T05:13:59.776Z,3.03
2024-02-13T05:16:31.031Z,6.07
2024-02-13T05:18:57.997Z,6.55
2024-02-13T05:21:25.370Z,7.13
2024-02-13T05:23:52.459Z,5.30
2024-02-13T05:26:19.529Z,5.45
2024-02-13T05:28:46.774Z,6.05
2024-02-13T05:31:13.638Z,5.90
2024-02-13T05:33:40.867Z,8.05
2024-02-13T05:36:11.517Z,4.90
2024-02-13T05:38:44.423Z,8.30
2024-02-13T05:41:12.053Z,7.03
2024-02-13T05:43:41.109Z,8.95
2024-02-13T05:46:08.285Z,5.82
2024-02-13T05:48:37.357Z,7.07
2024-02-13T05:51:10.525Z,11.50
2024-02-13T05:53:37.766Z,4.32
2024-02-13T05:56:05.456Z,8.75
2024-02-13T05:58:32.735Z,4.35
2024-02-13T06:00:59.698Z,8.50
2024-02-13T06:03:26.610Z,5.22
2024-02-13T06:05:56.819Z,5.72
2024-02-13T06:08:24.682Z,7.22
2024-02-13T06:10:51.867Z,12.38
2024-02-13T06:13:18.949Z,15.88
2024-02-13T06:15:45.884Z,21.30
2024-02-13T06:18:13.448Z,16.73
2024-02-13T06:20:40.721Z,15.73
2024-02-13T06:23:07.891Z,8.75
2024-02-13T06:25:34.993Z,8.95
2024-02-13T06:28:01.931Z,8.20
2024-02-13T06:30:29.467Z,7.07
2024-02-13T06:32:56.871Z,4.05
2024-02-13T06:35:23.832Z,8.13
2024-02-13T06:37:51.430Z,5.38
2024-02-13T06:40:18.432Z,5.70
2024-02-13T06:42:45.332Z,7.00
2024-02-13T06:45:12.309Z,4.45
2024-02-13T06:47:39.701Z,9.32
2024-02-13T06:50:13.425Z,10.50
2024-02-13T06:52:41.925Z,4.80
2024-02-13T06:55:09.491Z,5.00
2024-02-13T06:57:37.291Z,3.40
2024-02-13T07:00:25.826Z,5.15
2024-02-13T07:02:54.816Z,4.47
2024-02-13T07:05:21.758Z,6.05
2024-02-13T07:07:49.644Z,3.25
2024-02-13T07:10:17.720Z,5.82
2024-02-13T07:12:45.512Z,17.48
2024-02-13T07:15:12.879Z,10.82
2024-02-13T07:20:12.501Z,8.63
2024-02-13T07:22:40.607Z,4.25
2024-02-13T07:25:10.220Z,5.45
2024-02-13T07:27:38.712Z,4.47
2024-02-13T07:30:09.896Z,4.70
2024-02-13T07:32:36.786Z,6.57
2024-02-13T07:35:04.753Z,8.75
2024-02-13T07:37:32.725Z,4.47
2024-02-13T07:40:00.837Z,8.48
2024-02-13T07:42:29.378Z,10.73
2024-02-13T07:44:56.876Z,9.82
2024-02-13T07:47:24.227Z,9.35
2024-02-13T07:49:51.517Z,9.15
2024-02-13T07:52:19.215Z,7.50
2024-02-13T07:54:47.172Z,7.07
2024-02-13T07:57:18.343Z,4.07
2024-02-13T07:59:46.227Z,7.97
2024-02-13T08:02:14.578Z,3.88
2024-02-13T08:04:42.176Z,3.55
2024-02-13T08:07:10.215Z,5.72
2024-02-13T08:09:37.846Z,5.15
2024-02-13T08:12:08.143Z,3.28
2024-02-13T08:14:36.471Z,3.17
2024-02-13T08:17:08.083Z,5.82
2024-02-13T08:19:42.200Z,4.23
2024-02-13T08:22:09.820Z,3.42
2024-02-13T08:24:37.570Z,4.53
2024-02-13T08:27:06.925Z,4.07
2024-02-13T08:29:34.142Z,2.08
2024-02-13T08:32:01.224Z,3.53
2024-02-13T08:34:28.358Z,4.03
2024-02-13T08:36:56.750Z,5.63
2024-02-13T08:39:23.617Z,5.03
2024-02-13T08:41:50.630Z,3.20
2024-02-13T08:44:18.193Z,2.90
2024-02-13T08:46:45.036Z,3.00
2024-02-13T08:49:13.531Z,2.88
2024-02-13T08:51:40.911Z,2.85
2024-02-13T08:54:12.865Z,3.33
2024-02-13T08:56:41.202Z,2.92
2024-02-13T08:59:09.604Z,3.38
2024-02-13T09:01:36.591Z,2.05
2024-02-13T09:04:03.798Z,2.50
2024-02-13T09:06:31.898Z,4.55
2024-02-13T09:08:59.338Z,2.08
2024-02-13T09:11:28.388Z,2.65
2024-02-13T09:13:55.262Z,1.55
2024-02-13T09:16:22.589Z,1.73
2024-02-13T09:18:49.669Z,4.03
2024-02-13T09:21:18.147Z,1.58
2024-02-13T09:23:45.131Z,2.08
2024-02-13T09:26:12.953Z,2.50
2024-02-13T09:28:40.954Z,3.35
2024-02-13T09:31:09.473Z,3.28
2024-02-13T09:33:36.516Z,2.78
2024-02-13T09:36:06.763Z,2.50
2024-02-13T09:38:33.749Z,4.43
2024-02-13T09:41:00.894Z,1.20
2024-02-13T09:43:27.714Z,2.60
2024-02-13T09:45:56.461Z,1.60
2024-02-13T09:48:26.680Z,4.28
2024-02-13T09:50:59.657Z,1.75
2024-02-13T09:53:28.412Z,2.60
2024-02-13T09:55:59.238Z,2.55
2024-02-13T09:58:30.908Z,3.53
2024-02-13T10:01:01.074Z,2.00
2024-02-13T10:03:29.386Z,1.58
2024-02-13T10:05:57.150Z,4.43
2024-02-13T10:08:29.400Z,3.45
2024-02-13T10:11:04.255Z,1.90
2024-02-13T10:13:46.395Z,3.55
2024-02-13T10:16:27.404Z,4.05
2024-02-13T10:18:56.287Z,4.35
2024-02-13T10:21:27.627Z,3.50
2024-02-13T10:24:15.497Z,3.30
2024-02-13T10:26:43.653Z,4.75
2024-02-13T10:29:10.808Z,3.72
2024-02-13T10:31:39.860Z,3.83
2024-02-13T10:34:11.127Z,3.20
2024-02-13T10:36:42.735Z,3.72
2024-02-13T10:39:13.585Z,4.70
2024-02-13T10:41:43.505Z,2.33
2024-02-13T10:44:22.639Z,3.40
2024-02-13T10:46:50.814Z,2.80
2024-02-13T10:49:49.921Z,2.90
2024-02-13T10:52:17.594Z,2.78
2024-02-13T10:54:48.422Z,3.95
2024-02-13T10:57:16.681Z,5.55
2024-02-13T10:59:47.322Z,3.28
2024-02-13T11:02:15.830Z,3.03
2024-02-13T11:04:45.044Z,5.28
2024-02-13T11:07:12.842Z,3.90
2024-02-13T11:09:40.079Z,8.88
2024-02-13T11:12:08.410Z,4.72
2024-02-13T11:14:35.422Z,1.73
2024-02-13T11:17:13.143Z,3.10
2024-02-13T11:19:45.557Z,4.45
2024-02-13T11:22:16.882Z,2.13
2024-02-13T11:24:52.795Z,2.30
2024-02-13T11:27:30.002Z,3.25
2024-02-13T11:30:00.831Z,4.28
2024-02-13T11:32:33.440Z,3.88
2024-02-13T11:35:01.075Z,3.15
2024-02-13T11:37:31.740Z,2.85
2024-02-13T11:39:59.297Z,3.03
2024-02-13T11:42:35.009Z,6.97
2024-02-13T11:45:07.301Z,0.82
2024-02-13T11:47:34.797Z,2.88
2024-02-13T11:50:03.136Z,2.10
2024-02-13T11:52:30.074Z,2.70
2024-02-13T11:54:57.334Z,3.40
2024-02-13T11:57:26.744Z,2.00
2024-02-13T12:00:02.860Z,1.92
2024-02-13T12:02:31.265Z,4.00
2024-02-13T12:04:58.139Z,4.00
2024-02-13T12:07:25.105Z,3.45
2024-02-13T12:09:54.224Z,2.65
2024-02-13T12:12:22.137Z,1.52
2024-02-13T12:14:54.118Z,2.25
2024-02-13T12:17:22.874Z,3.90
2024-02-13T12:19:50.478Z,6.00
2024-02-13T12:22:18.810Z,3.03
2024-02-13T12:24:47.981Z,3.22
2024-02-13T12:27:16.548Z,2.60
2024-02-13T12:29:46.855Z,3.00
2024-02-13T12:32:18.769Z,2.95
2024-02-13T12:37:19.629Z,5.20
2024-02-13T12:39:47.347Z,2.90
2024-02-13T12:42:14.904Z,3.75
2024-02-13T12:44:42.339Z,1.77
2024-02-13T12:47:11.627Z,2.80
2024-02-13T12:49:40.099Z,1.65
2024-02-13T12:52:07.658Z,3.90
2024-02-13T12:54:34.498Z,4.00
2024-02-13T12:57:02.196Z,4.20
2024-02-13T12:59:33.431Z,2.65
2024-02-13T13:02:00.604Z,4.93
2024-02-13T13:04:27.742Z,2.85
2024-02-13T13:06:56.103Z,3.05
2024-02-13T13:09:27.984Z,0.95
2024-02-13T13:11:56.674Z,1.88
2024-02-13T13:14:25.228Z,3.50
2024-02-13T13:16:53.141Z,2.00
2024-02-13T13:19:23.599Z,3.55
2024-02-13T13:21:52.356Z,1.77
2024-02-13T13:24:19.217Z,1.23
2024-02-13T13:26:46.788Z,3.30
2024-02-13T13:29:18.144Z,1.35
2024-02-13T13:31:45.813Z,4.35
2024-02-13T13:34:17.317Z,3.45
2024-02-13T13:36:45.954Z,3.83
2024-02-13T13:39:15.120Z,2.08
2024-02-13T13:41:42.901Z,1.83
2024-02-13T13:44:15.033Z,4.22
2024-02-13T13:46:42.696Z,2.03
2024-02-13T13:49:10.796Z,1.75
2024-02-13T13:51:40.640Z,3.72
2024-02-13T13:54:07.797Z,1.80
2024-02-13T13:56:34.892Z,1.70
2024-02-13T13:59:01.729Z,2.03
2024-02-13T14:01:28.697Z,2.58
2024-02-13T14:03:57.023Z,4.15
2024-02-13T14:06:24.295Z,3.38
2024-02-13T14:08:51.357Z,1.50
2024-02-13T14:11:22.306Z,2.78
2024-02-13T14:13:51.156Z,3.42
2024-02-13T14:16:19.546Z,4.10
2024-02-13T14:18:46.615Z,3.15
2024-02-13T14:21:14.004Z,3.08
2024-02-13T14:23:42.209Z,1.63
2024-02-13T14:26:09.149Z,2.67
2024-02-13T14:28:36.180Z,4.60
2024-02-13T14:31:02.990Z,2.90
2024-02-13T14:33:30.203Z,2.03
2024-02-13T14:35:57.341Z,1.55
2024-02-13T14:38:24.278Z,2.50
2024-02-13T14:40:51.063Z,3.95
2024-02-13T14:43:17.862Z,1.30
2024-02-13T14:45:45.825Z,2.03
2024-02-13T14:48:15.067Z,1.15
2024-02-13T14:50:42.743Z,1.90
2024-02-13T14:53:10.407Z,3.10
2024-02-13T14:55:40.181Z,3.20
2024-02-13T14:58:18.103Z,1.30
2024-02-13T15:00:54.667Z,3.22
2024-02-13T15:03:25.438Z,2.15
2024-02-13T15:05:53.998Z,2.45
2024-02-13T15:08:21.462Z,1.95
2024-02-13T15:10:50.193Z,0.93
2024-02-13T15:13:17.616Z,3.40
2024-02-13T15:15:52.246Z,3.25
2024-02-13T15:18:19.831Z,1.90
2024-02-13T15:20:48.745Z,1.85
2024-02-13T15:23:16.670Z,3.03
2024-02-13T15:25:43.797Z,3.63
2024-02-13T15:28:10.644Z,2.03
2024-02-13T15:30:38.948Z,3.45
2024-02-13T15:33:07.178Z,1.75
2024-02-13T15:35:43.120Z,3.67
2024-02-13T15:38:29.331Z,2.72
2024-02-13T15:41:14.966Z,2.42
2024-02-13T15:44:00.358Z,2.47
2024-02-13T15:46:45.829Z,3.72
2024-02-13T15:49:17.003Z,2.47
2024-02-13T15:51:50.731Z,3.88
2024-02-13T15:54:17.789Z,9.00
2024-02-13T15:56:50.173Z,3.10
2024-02-13T16:01:47.169Z,3.03
2024-02-13T16:04:14.666Z,3.00
2024-02-13T16:06:41.716Z,3.33
2024-02-13T16:09:12.034Z,4.28
2024-02-13T16:11:39.142Z,2.60
2024-02-13T16:14:06.258Z,2.47
2024-02-13T16:16:33.170Z,3.38
2024-02-13T16:19:00.115Z,2.13
2024-02-13T16:21:27.091Z,1.85
2024-02-13T16:23:54.170Z,1.02
2024-02-13T16:26:21.456Z,3.88
2024-02-13T16:28:48.447Z,3.05
2024-02-13T16:31:15.357Z,2.10
2024-02-13T16:33:44.043Z,2.95
2024-02-13T16:36:11.345Z,1.88
2024-02-13T16:38:38.531Z,4.32
2024-02-13T16:41:05.441Z,3.17
2024-02-13T16:43:32.958Z,4.97
2024-02-13T16:45:59.735Z,3.85
2024-02-13T16:48:27.120Z,3.88
2024-02-13T16:50:54.086Z,2.03
2024-02-13T16:53:20.937Z,3.85
2024-02-13T16:55:50.129Z,4.10
2024-02-13T16:58:17.156Z,8.70
2024-02-13T17:00:44.136Z,8.15
2024-02-13T17:03:11.026Z,8.88
2024-02-13T17:05:39.856Z,9.98
2024-02-13T17:08:08.065Z,9.70
2024-02-13T17:10:35.154Z,10.52
2024-02-13T17:13:04.491Z,6.32
2024-02-13T17:15:31.587Z,10.48
2024-02-13T17:17:58.748Z,8.07
2024-02-13T17:20:26.110Z,4.05
2024-02-13T17:22:55.226Z,6.57
2024-02-13T17:25:22.129Z,4.45
2024-02-13T17:27:49.387Z,4.55
2024-02-13T17:30:16.662Z,5.60
2024-02-13T17:32:45.964Z,5.57
2024-02-13T17:35:13.922Z,5.13
2024-02-13T17:37:40.928Z,4.57
2024-02-13T17:40:12.690Z,4.63
2024-02-13T17:42:40.180Z,4.72
2024-02-13T17:45:08.410Z,4.60
2024-02-13T17:47:39.327Z,5.78
2024-02-13T17:50:08.494Z,7.13
2024-02-13T17:52:35.550Z,4.82
2024-02-13T17:55:07.612Z,6.97
2024-02-13T17:57:39.864Z,3.72
2024-02-13T18:00:09.118Z,3.33
2024-02-13T18:02:38.976Z,4.97
2024-02-13T18:05:06.358Z,4.82
2024-02-13T18:07:35.061Z,2.50
2024-02-13T18:10:01.918Z,7.28
2024-02-13T18:12:28.771Z,2.40
2024-02-13T18:14:55.643Z,4.10
2024-02-13T18:17:25.221Z,4.45
2024-02-13T18:19:52.184Z,4.43
2024-02-13T18:22:19.500Z,5.55
2024-02-13T18:24:46.431Z,5.78
2024-02-13T18:27:14.812Z,3.70
2024-02-13T18:29:42.287Z,7.07
2024-02-13T18:32:09.151Z,6.63
2024-02-13T18:34:36.099Z,3.63
2024-02-13T18:37:02.912Z,5.35
2024-02-13T18:39:29.747Z,6.45
2024-02-13T18:41:56.687Z,5.82
2024-02-13T18:44:24.234Z,4.75
2024-02-13T18:46:54.539Z,7.82
2024-02-13T18:49:22.536Z,5.38
2024-02-13T18:51:50.596Z,4.88
2024-02-13T18:54:18.146Z,7.63
2024-02-13T18:56:45.064Z,6.38
2024-02-13T18:59:12.496Z,12.23
2024-02-13T19:01:41.079Z,9.15
2024-02-13T19:04:10.414Z,9.57
2024-02-13T19:06:39.188Z,8.27
2024-02-13T19:09:06.859Z,8.57
2024-02-13T19:11:34.085Z,7.15
2024-02-13T19:14:01.070Z,8.63
2024-02-13T19:16:27.877Z,7.15
2024-02-13T19:18:54.789Z,8.20
2024-02-13T19:21:22.751Z,9.98
2024-02-13T19:23:49.725Z,7.10
2024-02-13T19:26:16.598Z,12.25
2024-02-13T19:28:43.512Z,12.77
2024-02-13T19:31:12.306Z,11.85
2024-02-13T19:33:39.416Z,15.77
2024-02-13T19:36:06.839Z,18.05
2024-02-13T19:38:34.965Z,19.27
2024-02-13T19:41:01.913Z,18.85
2024-02-13T19:43:28.757Z,16.42
2024-02-13T19:45:56.963Z,15.07
2024-02-13T19:48:23.925Z,17.25
2024-02-13T19:50:52.555Z,14.77
2024-02-13T19:53:19.836Z,14.75
2024-02-13T19:55:46.649Z,16.60
2024-02-13T19:58:16.293Z,17.08
2024-02-13T20:00:43.271Z,18.33
2024-02-13T20:03:10.150Z,19.00
2024-02-13T20:05:37.180Z,23.80
2024-02-13T20:08:04.313Z,25.10
2024-02-13T20:10:32.001Z,25.13
2024-02-13T20:12:58.926Z,29.50
2024-02-13T20:15:25.822Z,26.58
2024-02-13T20:17:52.885Z,25.95
2024-02-13T20:20:20.695Z,26.00
2024-02-13T20:22:49.650Z,23.15
2024-02-13T20:25:16.714Z,18.63
2024-02-13T20:27:45.219Z,17.42
2024-02-13T20:30:14.599Z,18.40
2024-02-13T20:32:46.340Z,14.30
2024-02-13T20:35:13.857Z,18.98
2024-02-13T20:37:41.844Z,13.30
2024-02-13T20:40:11.569Z,11.35
2024-02-13T20:42:40.833Z,13.07
2024-02-13T20:45:21.407Z,11.43
2024-02-13T20:47:51.108Z,10.35
2024-02-13T20:50:18.639Z,12.57
2024-02-13T20:52:45.634Z,11.63
2024-02-13T20:55:14.910Z,10.95
2024-02-13T20:57:43.422Z,10.90
2024-02-13T21:00:16.888Z,10.02
2024-02-13T21:02:44.290Z,10.85
2024-02-13T21:05:11.666Z,12.68
2024-02-13T21:07:38.749Z,9.45
2024-02-13T21:10:07.517Z,13.10
2024-02-13T21:12:34.433Z,7.95
2024-02-13T21:15:01.643Z,10.98
2024-02-13T21:17:29.174Z,10.30
2024-02-13T21:20:01.431Z,10.93
2024-02-13T21:25:14.016Z,9.25
2024-02-13T21:27:40.864Z,11.95
2024-02-13T21:30:08.358Z,9.68
2024-02-13T21:32:36.247Z,12.68
2024-02-13T21:35:04.622Z,15.98
2024-02-13T21:37:31.971Z,10.82
2024-02-13T21:39:58.824Z,8.63
2024-02-13T21:42:25.676Z,9.38
2024-02-13T21:44:52.575Z,7.13
2024-02-13T21:47:19.494Z,8.68
2024-02-13T21:49:46.379Z,7.07
2024-02-13T21:52:13.701Z,10.93
2024-02-13T21:54:40.611Z,11.73
2024-02-13T21:57:10.567Z,8.65
2024-02-13T21:59:37.509Z,10.05
2024-02-13T22:02:04.664Z,10.07
2024-02-13T22:04:34.741Z,8.25
2024-02-13T22:07:02.016Z,6.30
2024-02-13T22:09:29.002Z,6.85
2024-02-13T22:11:56.525Z,8.77
2024-02-13T22:14:23.931Z,9.82
2024-02-13T22:16:52.468Z,11.05
2024-02-13T22:19:19.614Z,11.52
2024-02-13T22:21:47.420Z,11.25
2024-02-13T22:24:14.387Z,15.48
2024-02-13T22:26:41.402Z,13.27
2024-02-13T22:29:09.450Z,13.48
2024-02-13T22:31:36.675Z,19.35
2024-02-13T22:34:04.491Z,14.07
2024-02-13T22:36:31.473Z,14.57
2024-02-13T22:38:58.372Z,16.50
2024-02-13T22:41:25.556Z,14.05
2024-02-13T22:43:55.250Z,15.82
2024-02-13T22:46:25.964Z,16.05
2024-02-13T22:48:53.382Z,18.88
2024-02-13T22:51:20.517Z,16.52
2024-02-13T22:53:47.373Z,20.95
2024-02-13T22:56:14.264Z,17.35
2024-02-13T22:58:41.081Z,21.55
2024-02-13T23:01:09.269Z,21.25
2024-02-13T23:03:36.665Z,20.45
2024-02-13T23:06:05.178Z,18.55
2024-02-13T23:08:32.754Z,15.77
2024-02-13T23:11:00.053Z,17.30
2024-02-13T23:13:32.388Z,15.98
2024-02-13T23:16:08.030Z,15.02
2024-02-13T23:18:36.031Z,12.50
2024-02-13T23:21:04.271Z,10.18
2024-02-13T23:23:34.006Z,8.13
2024-02-13T23:26:01.196Z,16.05
2024-02-13T23:28:32.594Z,11.10
2024-02-13T23:31:02.469Z,8.20
2024-02-13T23:33:30.900Z,7.97
2024-02-13T23:35:58.374Z,9.35
2024-02-13T23:38:25.361Z,7.50
2024-02-13T23:40:52.413Z,8.25
2024-02-13T23:43:19.574Z,10.05
2024-02-13T23:45:46.413Z,9.70
2024-02-13T23:48:14.382Z,5.75
2024-02-13T23:50:41.571Z,8.48
2024-02-13T23:53:09.209Z,9.10
2024-02-13T23:55:36.077Z,8.95
2024-02-13T23:58:04.728Z,6.75
